Time;durP1;ratioP1;P1;durP2;ratioP2;P2;SDS_P1;SDS_P2;PMS_P1;PMS_P2;Temp;Humidity;BMP_temperature;BMP_pressure;BME280_temperature;BME280_humidity;BME280_pressure;Samples;Min_cycle;Max_cycle;Signal;HPM_P1;HPM_P2
2021/06/17 00:02:13;;;;;;;6.63;3.97;;;16.80;99.90;;;;;;4944365;29;20189;-87
2021/06/17 00:04:38;;;;;;;4.20;3.80;;;16.80;99.90;;;;;;4944621;29;20192;-87
2021/06/17 00:07:04;;;;;;;7.10;3.80;;;16.70;99.90;;;;;;4945751;29;20307;-87
2021/06/17 00:09:30;;;;;;;9.90;3.87;;;16.80;99.90;;;;;;4944248;29;20187;-87
2021/06/17 00:12:00;;;;;;;5.80;3.43;;;16.70;99.90;;;;;;4944537;29;20260;-86
2021/06/17 00:14:29;;;;;;;4.37;3.70;;;16.70;99.90;;;;;;4945236;29;20193;-87
2021/06/17 00:16:57;;;;;;;6.17;3.60;;;16.70;99.90;;;;;;4945122;29;20292;-87
2021/06/17 00:19:23;;;;;;;4.47;3.27;;;16.70;99.90;;;;;;4946071;29;20186;-87
2021/06/17 00:21:49;;;;;;;4.77;3.83;;;16.70;99.90;;;;;;4948695;29;20188;-87
2021/06/17 00:24:15;;;;;;;4.63;3.80;;;16.60;99.90;;;;;;4950534;29;20181;-86
2021/06/17 00:26:42;;;;;;;4.67;3.93;;;16.60;99.90;;;;;;4945768;29;20216;-86
2021/06/17 00:29:11;;;;;;;4.53;3.70;;;16.50;99.90;;;;;;4945748;29;20259;-86
2021/06/17 00:31:39;;;;;;;5.57;3.60;;;16.70;99.90;;;;;;4945577;29;20185;-86
2021/06/17 00:34:08;;;;;;;8.97;4.20;;;16.60;99.90;;;;;;4946519;28;20231;-86
2021/06/17 00:36:35;;;;;;;6.53;4.00;;;16.70;99.90;;;;;;4947612;29;20205;-86
2021/06/17 00:39:04;;;;;;;4.70;3.60;;;16.60;99.90;;;;;;4946959;29;20185;-86
2021/06/17 00:41:32;;;;;;;6.43;3.87;;;16.60;99.90;;;;;;4948177;29;20651;-86
2021/06/17 00:43:58;;;;;;;4.03;3.60;;;16.70;99.90;;;;;;4946385;29;20191;-86
2021/06/17 00:46:29;;;;;;;4.73;3.60;;;16.70;99.90;;;;;;4946339;29;20217;-86
2021/06/17 00:48:55;;;;;;;7.83;3.87;;;16.70;99.90;;;;;;4946591;28;20180;-86
2021/06/17 00:51:24;;;;;;;7.10;3.80;;;16.70;99.90;;;;;;4947074;29;20177;-86
2021/06/17 00:53:53;;;;;;;4.10;3.67;;;16.70;99.90;;;;;;4945841;29;20181;-86
2021/06/17 00:56:28;;;;;;;4.30;3.63;;;16.60;99.90;;;;;;4946424;29;20205;-86
2021/06/17 00:59:04;;;;;;;7.03;4.13;;;16.70;99.90;;;;;;4947091;29;20180;-86
2021/06/17 01:01:47;;;;;;;5.20;3.37;;;16.80;99.90;;;;;;4946713;29;20710;-86
2021/06/17 01:04:45;;;;;;;7.87;4.10;;;16.80;99.90;;;;;;4946514;29;20185;-86
2021/06/17 01:07:25;;;;;;;6.53;3.70;;;16.80;99.90;;;;;;4944727;29;20256;-86
2021/06/17 01:10:26;;;;;;;5.57;3.47;;;16.70;99.90;;;;;;4946354;29;20260;-86
2021/06/17 01:13:11;;;;;;;5.00;3.53;;;16.70;99.90;;;;;;4945813;29;20188;-86
2021/06/17 01:15:49;;;;;;;4.67;3.30;;;16.60;99.90;;;;;;4946819;29;20671;-86
2021/06/17 01:18:17;;;;;;;5.13;3.80;;;16.60;99.90;;;;;;4947408;29;20259;-86
2021/06/17 01:20:55;;;;;;;4.37;3.20;;;16.50;99.90;;;;;;4946323;29;20181;-86
2021/06/17 01:23:43;;;;;;;5.60;3.80;;;16.50;99.90;;;;;;4945982;29;20204;-85
2021/06/17 01:26:38;;;;;;;5.63;3.50;;;16.50;99.90;;;;;;4946236;29;20205;-86
2021/06/17 01:29:06;;;;;;;8.40;3.70;;;16.40;99.90;;;;;;4945661;29;20514;-86
2021/06/17 01:31:34;;;;;;;4.50;3.27;;;16.40;99.90;;;;;;4945385;29;20658;-86
2021/06/17 01:34:00;;;;;;;6.07;3.50;;;16.40;99.90;;;;;;4961884;28;20173;-86
2021/06/17 01:36:36;;;;;;;3.83;3.13;;;16.30;99.90;;;;;;4945874;29;20690;-86
2021/06/17 01:39:06;;;;;;;4.73;3.40;;;16.40;99.90;;;;;;4945190;29;20185;-86
2021/06/17 01:41:37;;;;;;;5.87;4.20;;;16.30;99.90;;;;;;4944482;29;20272;-86
2021/06/17 01:44:06;;;;;;;5.57;3.47;;;16.30;99.90;;;;;;4944719;29;20181;-86
2021/06/17 01:46:33;;;;;;;5.50;3.37;;;16.20;99.90;;;;;;4944070;29;20574;-86
2021/06/17 01:49:06;;;;;;;4.20;3.07;;;16.20;99.90;;;;;;4944416;29;20251;-86
2021/06/17 01:51:36;;;;;;;8.90;3.40;;;16.20;99.90;;;;;;4944606;29;20173;-86
2021/06/17 01:54:20;;;;;;;5.30;3.37;;;16.20;99.90;;;;;;4944187;29;20177;-86
2021/06/17 01:56:51;;;;;;;3.47;3.07;;;16.10;99.90;;;;;;4944500;29;20255;-86
2021/06/17 01:59:19;;;;;;;3.40;3.10;;;16.10;99.90;;;;;;4943816;29;20272;-86
2021/06/17 02:01:53;;;;;;;4.10;2.97;;;16.10;99.90;;;;;;4942880;29;20189;-86
2021/06/17 02:04:25;;;;;;;3.40;2.80;;;15.90;99.90;;;;;;4944019;29;20195;-86
2021/06/17 02:06:52;;;;;;;4.40;2.63;;;16.10;99.90;;;;;;4947362;29;20721;-86
2021/06/17 02:09:18;;;;;;;4.10;2.90;;;15.70;99.90;;;;;;4948246;29;20743;-86
2021/06/17 02:11:57;;;;;;;3.80;3.10;;;16.10;99.90;;;;;;4949309;29;20182;-86
2021/06/17 02:14:26;;;;;;;4.73;2.87;;;16.20;99.90;;;;;;4946238;29;20543;-86
2021/06/17 02:16:54;;;;;;;5.77;3.30;;;16.10;99.90;;;;;;4946401;29;20200;-86
2021/06/17 02:19:20;;;;;;;5.23;3.20;;;16.10;99.90;;;;;;4944348;29;20177;-86
2021/06/17 02:21:51;;;;;;;4.47;3.33;;;16.00;99.90;;;;;;4944684;29;20203;-86
2021/06/17 02:24:19;;;;;;;3.20;2.90;;;16.00;99.90;;;;;;4946826;29;20173;-86
2021/06/17 02:26:51;;;;;;;3.40;3.00;;;16.00;99.90;;;;;;4948529;29;20209;-87
2021/06/17 02:29:21;;;;;;;4.93;3.03;;;15.80;99.90;;;;;;4953468;28;20205;-86
2021/06/17 02:32:02;;;;;;;3.83;3.00;;;15.90;99.90;;;;;;4963074;28;20181;-86
2021/06/17 02:34:29;;;;;;;3.23;2.80;;;15.90;99.90;;;;;;4952200;29;20665;-86
2021/06/17 02:37:19;;;;;;;4.80;3.40;;;15.90;99.90;;;;;;4943634;28;20291;-86
2021/06/17 02:39:51;;;;;;;4.13;3.27;;;15.60;99.90;;;;;;4943040;29;20169;-86
2021/06/17 02:42:20;;;;;;;5.57;3.20;;;15.90;99.90;;;;;;4944239;29;20180;-86
2021/06/17 02:44:50;;;;;;;3.93;3.00;;;15.80;99.90;;;;;;4943662;29;20173;-86
2021/06/17 02:47:17;;;;;;;3.83;3.20;;;15.80;99.90;;;;;;4944287;29;20565;-86
2021/06/17 02:49:47;;;;;;;4.20;3.03;;;15.70;99.90;;;;;;4944931;29;20204;-86
2021/06/17 02:52:12;;;;;;;4.63;3.17;;;15.70;99.90;;;;;;4944381;29;20215;-86
2021/06/17 02:54:39;;;;;;;2.90;2.67;;;15.70;99.90;;;;;;4944729;29;20512;-86
2021/06/17 02:57:23;;;;;;;5.73;3.43;;;15.80;99.90;;;;;;4944746;29;20201;-86
2021/06/17 02:59:58;;;;;;;3.70;3.20;;;15.80;99.90;;;;;;4944184;29;20180;-86
2021/06/17 03:02:35;;;;;;;4.47;2.90;;;15.70;99.90;;;;;;4944795;29;20180;-86
2021/06/17 03:05:13;;;;;;;5.40;3.10;;;15.80;99.90;;;;;;4943857;29;20176;-86
2021/06/17 03:07:51;;;;;;;4.30;3.20;;;15.70;99.90;;;;;;4943815;29;20565;-86
2021/06/17 03:10:21;;;;;;;4.80;3.70;;;15.70;99.90;;;;;;4943757;29;20537;-86
2021/06/17 03:12:50;;;;;;;4.03;3.23;;;15.80;99.90;;;;;;4944940;29;20654;-86
2021/06/17 03:15:17;;;;;;;4.90;3.40;;;15.80;99.90;;;;;;4943847;29;20642;-86
2021/06/17 03:18:39;;;;;;;7.47;3.30;;;15.70;99.90;;;;;;4943456;29;20193;-86
2021/06/17 03:21:19;;;;;;;3.47;3.17;;;15.70;99.90;;;;;;4942436;29;20248;-87
2021/06/17 03:24:39;;;;;;;;;;;;;;;;;;;;;
2021/06/17 03:27:48;;;;;;;5.20;3.07;;;15.60;99.90;;;;;;4930249;29;20243;-86
2021/06/17 03:30:26;;;;;;;3.30;3.00;;;15.20;99.90;;;;;;4934674;29;20192;-86
2021/06/17 03:32:56;;;;;;;3.77;3.20;;;15.60;99.90;;;;;;4943890;29;20181;-86
2021/06/17 03:35:32;;;;;;;3.10;2.80;;;15.50;99.90;;;;;;4944602;29;20666;-86
2021/06/17 03:38:04;;;;;;;7.90;3.30;;;15.40;99.90;;;;;;4943314;29;20271;-86
2021/06/17 03:40:31;;;;;;;3.67;3.27;;;15.50;99.90;;;;;;4944795;29;20275;-87
2021/06/17 03:43:00;;;;;;;7.13;3.70;;;15.40;99.90;;;;;;4944147;29;20177;-86
2021/06/17 03:45:27;;;;;;;4.43;3.10;;;15.40;99.90;;;;;;4944398;29;20181;-86
2021/06/17 03:47:54;;;;;;;3.30;3.00;;;15.40;99.90;;;;;;4945018;29;20197;-86
2021/06/17 03:50:24;;;;;;;4.40;3.10;;;15.40;99.90;;;;;;4944336;29;20181;-86
2021/06/17 03:52:52;;;;;;;5.40;2.87;;;15.40;99.90;;;;;;4944537;29;20241;-86
2021/06/17 03:55:22;;;;;;;5.70;3.80;;;15.50;99.90;;;;;;4944729;28;20181;-86
2021/06/17 03:58:01;;;;;;;5.63;3.10;;;15.50;99.90;;;;;;4949481;29;20213;-86
2021/06/17 04:00:30;;;;;;;4.10;2.77;;;15.60;99.90;;;;;;4949923;28;20521;-86
2021/06/17 04:03:12;;;;;;;3.67;3.03;;;15.70;99.90;;;;;;4950299;29;20208;-86
2021/06/17 04:05:40;;;;;;;4.63;2.60;;;16.00;99.90;;;;;;4950495;29;20239;-86
2021/06/17 04:08:10;;;;;;;4.13;2.73;;;15.90;99.90;;;;;;4951229;29;20199;-86
2021/06/17 04:10:37;;;;;;;4.53;3.03;;;15.90;99.90;;;;;;4949875;29;20177;-87
2021/06/17 04:13:04;;;;;;;4.90;2.83;;;16.00;99.90;;;;;;4950731;29;20328;-86
2021/06/17 04:15:32;;;;;;;6.97;2.60;;;16.10;99.90;;;;;;4950225;29;20192;-86
2021/06/17 04:18:00;;;;;;;4.43;2.90;;;16.20;99.90;;;;;;4950581;29;20683;-86
2021/06/17 04:20:30;;;;;;;6.73;3.07;;;16.20;99.90;;;;;;4950054;29;20181;-86
2021/06/17 04:23:04;;;;;;;6.07;3.00;;;16.20;99.90;;;;;;4950632;29;20184;-87
2021/06/17 04:25:43;;;;;;;3.43;2.87;;;16.10;99.90;;;;;;4966175;29;20534;-86
2021/06/17 04:28:22;;;;;;;5.83;3.00;;;16.40;99.90;;;;;;4950917;29;20542;-87
2021/06/17 04:31:02;;;;;;;3.47;2.77;;;16.40;99.90;;;;;;4950168;28;20184;-86
2021/06/17 04:33:32;;;;;;;3.63;2.83;;;16.40;99.90;;;;;;4951091;29;20180;-86
2021/06/17 04:36:11;;;;;;;5.10;3.23;;;16.50;99.90;;;;;;4950674;29;20208;-87
2021/06/17 04:38:42;;;;;;;5.27;2.83;;;16.60;99.90;;;;;;4950449;29;20173;-86
2021/06/17 04:41:08;;;;;;;5.33;2.60;;;16.50;99.90;;;;;;4951208;29;20236;-86
2021/06/17 04:43:39;;;;;;;5.30;2.60;;;16.60;99.90;;;;;;4951670;28;20184;-86
2021/06/17 04:46:09;;;;;;;3.67;2.73;;;16.60;99.90;;;;;;4951669;28;20718;-86
2021/06/17 04:48:37;;;;;;;3.10;2.80;;;16.70;99.90;;;;;;4952358;29;20165;-86
2021/06/17 04:51:07;;;;;;;3.87;2.50;;;16.80;99.90;;;;;;4951742;29;20216;-86
2021/06/17 04:53:35;;;;;;;5.37;3.37;;;16.80;99.90;;;;;;4951815;29;20272;-86
2021/06/17 04:56:01;;;;;;;5.47;2.80;;;16.90;99.90;;;;;;4951680;29;20180;-86
2021/06/17 04:58:28;;;;;;;3.83;2.80;;;16.90;99.90;;;;;;4951926;29;20204;-86
2021/06/17 05:00:53;;;;;;;4.63;2.97;;;17.00;99.90;;;;;;4952115;29;20515;-86
2021/06/17 05:03:20;;;;;;;3.17;2.73;;;17.00;99.90;;;;;;4954194;29;20191;-87
2021/06/17 05:05:50;;;;;;;3.53;2.93;;;17.10;99.90;;;;;;4951070;29;20205;-86
2021/06/17 05:10:53;;;;;;;5.20;3.20;;;17.10;99.90;;;;;;4979656;28;20176;-86
2021/06/17 05:13:30;;;;;;;4.70;3.47;;;17.10;99.90;;;;;;4957706;29;20185;-86
2021/06/17 05:15:58;;;;;;;5.07;2.50;;;17.20;99.90;;;;;;4963155;29;20179;-87
2021/06/17 05:18:24;;;;;;;4.40;3.10;;;17.30;99.90;;;;;;4953802;29;20281;-87
2021/06/17 05:20:53;;;;;;;3.80;2.80;;;17.30;99.90;;;;;;4961684;29;20266;-87
2021/06/17 05:23:21;;;;;;;5.33;2.87;;;17.40;99.90;;;;;;4944070;29;20637;-87
2021/06/17 05:25:51;;;;;;;3.57;2.70;;;17.50;99.90;;;;;;4943998;29;20321;-86
2021/06/17 05:28:20;;;;;;;4.00;3.17;;;17.60;99.90;;;;;;4944685;29;20198;-87
2021/06/17 05:30:46;;;;;;;4.93;3.30;;;17.60;99.90;;;;;;4945018;29;20582;-86
2021/06/17 05:33:12;;;;;;;5.63;2.97;;;17.80;99.90;;;;;;4943838;29;20186;-86
2021/06/17 05:35:38;;;;;;;5.27;2.97;;;17.90;99.90;;;;;;4942480;29;20248;-86
2021/06/17 05:38:05;;;;;;;4.13;3.00;;;17.90;99.90;;;;;;4942810;29;20549;-87
2021/06/17 05:40:31;;;;;;;4.70;3.30;;;18.10;99.90;;;;;;4943613;29;20263;-87
2021/06/17 05:42:57;;;;;;;4.37;2.70;;;18.20;99.90;;;;;;4943640;29;20186;-87
2021/06/17 05:45:23;;;;;;;3.50;2.83;;;18.30;99.90;;;;;;4941951;29;20195;-84
2021/06/17 05:47:53;;;;;;;6.90;2.67;;;18.40;99.90;;;;;;4961853;29;20257;-87
2021/06/17 05:50:21;;;;;;;7.30;3.37;;;18.50;99.90;;;;;;4944955;29;20163;-85
2021/06/17 05:52:47;;;;;;;3.60;2.50;;;18.70;99.90;;;;;;4944175;29;20266;-86
2021/06/17 05:55:13;;;;;;;3.53;2.67;;;18.80;99.90;;;;;;4943832;29;20226;-86
2021/06/17 05:57:39;;;;;;;3.87;2.80;;;18.80;99.90;;;;;;4943981;29;20713;-83
2021/06/17 06:00:09;;;;;;;4.63;2.80;;;18.90;99.90;;;;;;4943050;29;20184;-85
2021/06/17 06:02:35;;;;;;;3.70;3.00;;;19.00;99.90;;;;;;4961616;29;20649;-85
2021/06/17 06:05:01;;;;;;;5.57;3.30;;;19.10;99.90;;;;;;4961162;29;20174;-86
2021/06/17 06:07:31;;;;;;;11.17;3.73;;;19.20;99.90;;;;;;4945158;29;20219;-84
2021/06/17 06:09:57;;;;;;;8.07;3.10;;;19.30;99.90;;;;;;4945516;29;20190;-85
2021/06/17 06:12:22;;;;;;;6.50;3.70;;;19.50;99.90;;;;;;4962967;29;20182;-85
2021/06/17 06:14:48;;;;;;;5.43;3.60;;;19.60;99.90;;;;;;4946124;29;20199;-85
2021/06/17 06:17:14;;;;;;;3.60;2.70;;;19.60;99.90;;;;;;4946945;29;20214;-86
2021/06/17 06:19:40;;;;;;;6.27;2.60;;;19.80;99.90;;;;;;4949382;29;20192;-85
2021/06/17 06:22:06;;;;;;;2.87;2.57;;;19.80;99.90;;;;;;4950451;29;20179;-86
2021/06/17 06:24:34;;;;;;;7.03;2.83;;;20.00;99.90;;;;;;4948932;29;20179;-86
2021/06/17 06:27:00;;;;;;;6.03;3.13;;;20.00;99.90;;;;;;4943651;29;20719;-85
2021/06/17 06:29:27;;;;;;;3.53;2.90;;;20.10;99.90;;;;;;4941342;29;20177;-86
2021/06/17 06:31:53;;;;;;;6.60;2.73;;;20.30;99.90;;;;;;4941247;29;20182;-86
2021/06/17 06:34:19;;;;;;;4.10;2.73;;;20.50;99.90;;;;;;4940786;29;20285;-86
2021/06/17 06:36:44;;;;;;;4.47;2.40;;;20.60;99.90;;;;;;4941396;29;20247;-86
2021/06/17 06:39:10;;;;;;;6.63;3.03;;;20.70;99.90;;;;;;4960810;29;20639;-86
2021/06/17 06:41:37;;;;;;;8.97;3.00;;;20.90;99.90;;;;;;4943003;29;20666;-86
2021/06/17 06:44:03;;;;;;;9.33;2.63;;;21.00;99.90;;;;;;4943474;29;20192;-86
2021/06/17 06:46:29;;;;;;;3.63;2.57;;;21.10;99.90;;;;;;4942657;29;20605;-86
2021/06/17 06:48:54;;;;;;;3.80;2.70;;;21.20;99.90;;;;;;4942884;29;20239;-86
2021/06/17 06:51:20;;;;;;;6.37;2.93;;;21.40;99.90;;;;;;4942552;29;20187;-86
2021/06/17 06:53:46;;;;;;;6.93;2.80;;;21.50;99.90;;;;;;4960145;29;20180;-85
2021/06/17 06:56:12;;;;;;;6.93;2.60;;;21.60;99.90;;;;;;4943528;29;20184;-86
2021/06/17 06:58:37;;;;;;;2.60;2.40;;;21.70;99.90;;;;;;4943917;29;20185;-86
2021/06/17 07:01:03;;;;;;;3.53;2.50;;;21.80;99.90;;;;;;4943527;29;20183;-86
2021/06/17 07:03:29;;;;;;;7.30;3.03;;;21.90;99.90;;;;;;4943086;29;20643;-85
2021/06/17 07:05:54;;;;;;;5.07;2.80;;;22.00;99.90;;;;;;4942822;29;20208;-86
2021/06/17 07:08:20;;;;;;;4.37;2.40;;;22.10;99.90;;;;;;4961197;29;20514;-86
2021/06/17 07:10:48;;;;;;;2.67;2.43;;;22.30;99.90;;;;;;4944016;29;20212;-86
2021/06/17 07:13:14;;;;;;;3.17;2.50;;;22.60;99.90;;;;;;4943580;29;20177;-87
2021/06/17 07:15:42;;;;;;;4.03;2.50;;;22.70;99.90;;;;;;4944103;29;20196;-86
2021/06/17 07:18:07;;;;;;;5.47;2.80;;;22.90;99.90;;;;;;4961443;29;20188;-86
2021/06/17 07:20:33;;;;;;;4.03;2.77;;;23.00;99.90;;;;;;4944092;29;20331;-86
2021/06/17 07:22:59;;;;;;;4.17;2.70;;;23.10;99.90;;;;;;4944131;29;20611;-86
2021/06/17 07:25:27;;;;;;;6.07;2.53;;;23.10;99.90;;;;;;4944177;29;20177;-86
2021/06/17 07:27:53;;;;;;;2.57;2.37;;;23.30;99.90;;;;;;4944116;29;20206;-85
2021/06/17 07:30:21;;;;;;;5.27;2.50;;;23.30;99.90;;;;;;4943685;28;20279;-86
2021/06/17 07:32:47;;;;;;;3.60;2.63;;;23.50;99.90;;;;;;4943789;29;20177;-85
2021/06/17 07:35:14;;;;;;;3.43;3.13;;;23.60;99.90;;;;;;4939818;29;20185;-85
2021/06/17 07:37:40;;;;;;;5.63;3.17;;;23.70;99.90;;;;;;4939808;29;20291;-85
2021/06/17 07:40:08;;;;;;;4.60;2.93;;;23.80;99.90;;;;;;4939688;29;20328;-85
2021/06/17 07:42:35;;;;;;;6.63;2.70;;;23.90;99.90;;;;;;4960329;28;20163;-86
2021/06/17 07:45:00;;;;;;;3.00;2.70;;;24.00;99.90;;;;;;4969796;28;20538;-86
2021/06/17 07:47:26;;;;;;;3.80;2.93;;;24.20;99.90;;;;;;4949968;29;20279;-85
2021/06/17 07:49:52;;;;;;;4.37;2.80;;;24.20;99.90;;;;;;4957243;29;20195;-84
2021/06/17 07:52:18;;;;;;;5.80;2.40;;;24.30;99.90;;;;;;4963063;29;20212;-85
2021/06/17 07:54:43;;;;;;;3.60;3.20;;;24.40;99.90;;;;;;4941703;29;20277;-85
2021/06/17 07:57:09;;;;;;;6.23;2.83;;;24.50;99.90;;;;;;4941513;29;20665;-84
2021/06/17 07:59:35;;;;;;;3.43;3.13;;;24.60;99.90;;;;;;4959455;29;20531;-85
2021/06/17 08:02:00;;;;;;;3.70;3.13;;;24.60;99.90;;;;;;4941478;29;20310;-86
2021/06/17 08:04:27;;;;;;;5.90;3.50;;;24.70;99.90;;;;;;4941568;29;20188;-85
2021/06/17 08:06:54;;;;;;;2.83;2.53;;;24.80;99.90;;;;;;4941489;29;20226;-85
2021/06/17 08:09:20;;;;;;;4.83;2.83;;;24.90;99.90;;;;;;4958947;29;20185;-85
2021/06/17 08:11:51;;;;;;;4.17;2.57;;;25.00;99.90;;;;;;4959669;29;20253;-85
2021/06/17 08:14:21;;;;;;;4.47;2.93;;;25.10;99.90;;;;;;4941692;29;20195;-85
2021/06/17 08:16:47;;;;;;;3.53;3.00;;;25.20;99.90;;;;;;4940914;29;20205;-84
2021/06/17 08:19:13;;;;;;;4.47;2.97;;;25.40;99.90;;;;;;4958697;29;20191;-85
2021/06/17 08:21:39;;;;;;;3.63;2.90;;;25.50;99.90;;;;;;4958501;29;20185;-85
2021/06/17 08:24:05;;;;;;;3.47;2.67;;;25.60;99.90;;;;;;4940789;29;20560;-84
2021/06/17 08:26:32;;;;;;;4.77;2.63;;;25.80;99.90;;;;;;4958146;29;20225;-85
2021/06/17 08:28:59;;;;;;;3.47;2.93;;;25.90;99.90;;;;;;4941233;29;20187;-85
2021/06/17 08:31:25;;;;;;;6.40;2.63;;;26.00;99.90;;;;;;4958001;29;20180;-85
2021/06/17 08:33:51;;;;;;;3.67;2.63;;;26.10;99.90;;;;;;4941181;29;20193;-85
2021/06/17 08:36:17;;;;;;;9.67;2.80;;;26.30;99.90;;;;;;4957946;29;20197;-85
2021/06/17 08:38:43;;;;;;;3.67;2.40;;;26.50;99.90;;;;;;4941360;29;20650;-85
2021/06/17 08:41:09;;;;;;;3.33;2.47;;;26.80;99.90;;;;;;4958202;29;20183;-85
2021/06/17 08:43:35;;;;;;;5.47;2.80;;;27.00;99.90;;;;;;4943612;29;20187;-85
2021/06/17 08:46:02;;;;;;;3.27;2.80;;;27.30;99.70;;;;;;4944724;29;20221;-86
2021/06/17 08:48:27;;;;;;;4.93;2.60;;;27.50;99.90;;;;;;4944323;29;20539;-85
2021/06/17 08:50:54;;;;;;;3.40;2.60;;;27.70;99.90;;;;;;4944997;29;20239;-85
2021/06/17 08:53:21;;;;;;;3.77;2.47;;;27.80;99.40;;;;;;4962355;29;20211;-83
2021/06/17 08:55:46;;;;;;;6.13;2.50;;;27.80;99.10;;;;;;4962147;29;20177;-83
2021/06/17 08:58:12;;;;;;;2.50;2.30;;;27.90;97.50;;;;;;4944527;29;20216;-83
2021/06/17 09:00:43;;;;;;;4.57;2.60;;;28.00;99.90;;;;;;4961821;29;20188;-83
2021/06/17 09:03:11;;;;;;;3.10;2.80;;;28.10;99.40;;;;;;4944550;29;20205;-84
2021/06/17 09:05:41;;;;;;;3.93;2.30;;;28.10;96.80;;;;;;4961433;29;20186;-83
2021/06/17 09:08:09;;;;;;;2.50;2.30;;;28.20;94.10;;;;;;4943822;29;20606;-83
2021/06/17 09:10:39;;;;;;;4.43;2.30;;;28.40;96.40;;;;;;4943913;29;20267;-84
2021/06/17 09:13:05;;;;;;;2.83;2.37;;;28.50;95.40;;;;;;4962157;29;20200;-83
2021/06/17 09:15:38;;;;;;;3.63;2.20;;;28.70;94.90;;;;;;4944273;29;20654;-84
2021/06/17 09:18:10;;;;;;;4.03;2.20;;;28.70;94.40;;;;;;4943887;29;20331;-84
2021/06/17 09:20:36;;;;;;;3.33;1.90;;;28.70;93.60;;;;;;4943786;29;20272;-83
2021/06/17 09:23:23;;;;;;;2.20;2.00;;;28.80;93.20;;;;;;4944260;29;20205;-83
2021/06/17 09:25:50;;;;;;;3.87;2.03;;;28.90;91.20;;;;;;4944177;29;20209;-83
2021/06/17 09:28:16;;;;;;;2.07;1.90;;;29.00;94.80;;;;;;4961059;29;20247;-83
2021/06/17 09:30:42;;;;;;;2.50;1.87;;;29.20;87.10;;;;;;4960284;29;20620;-83
2021/06/17 09:33:11;;;;;;;5.80;2.30;;;29.30;90.20;;;;;;4960650;29;20263;-83
2021/06/17 09:35:52;;;;;;;3.03;2.10;;;29.40;87.30;;;;;;4943489;29;20183;-84
2021/06/17 09:38:18;;;;;;;2.70;1.87;;;29.60;87.50;;;;;;4943176;29;20204;-83
2021/06/17 09:40:46;;;;;;;2.40;2.07;;;29.80;91.90;;;;;;4942720;29;20183;-84
2021/06/17 09:43:11;;;;;;;2.10;1.90;;;30.00;88.50;;;;;;4942887;29;20191;-83
2021/06/17 09:45:37;;;;;;;3.43;2.10;;;30.20;83.80;;;;;;4942848;29;20181;-84
2021/06/17 09:48:03;;;;;;;2.20;2.00;;;30.40;89.40;;;;;;4959808;29;20203;-83
2021/06/17 09:50:29;;;;;;;2.20;2.00;;;30.60;92.20;;;;;;4942692;29;20542;-84
2021/06/17 09:52:56;;;;;;;2.03;1.83;;;30.70;83.50;;;;;;4942492;29;20641;-83
2021/06/17 09:55:44;;;;;;;5.50;1.70;;;30.70;84.20;;;;;;4958994;28;20245;-84
2021/06/17 09:58:37;;;;;;;1.93;1.83;;;30.70;80.50;;;;;;4942885;29;20253;-83
2021/06/17 10:01:04;;;;;;;7.67;1.87;;;30.80;84.30;;;;;;4941965;29;20196;-83
2021/06/17 10:03:30;;;;;;;6.47;2.07;;;31.00;84.50;;;;;;4959299;29;20195;-83
2021/06/17 10:05:57;;;;;;;2.93;2.10;;;31.00;73.20;;;;;;4942541;29;20679;-83
2021/06/17 10:08:22;;;;;;;4.80;2.20;;;31.10;78.60;;;;;;4942160;29;20184;-83
2021/06/17 10:10:49;;;;;;;3.40;2.40;;;31.00;75.80;;;;;;4958665;29;20264;-83
2021/06/17 10:13:26;;;;;;;2.83;1.90;;;31.20;84.00;;;;;;4940924;29;20647;-83
2021/06/17 10:15:51;;;;;;;3.67;2.37;;;31.30;80.70;;;;;;4965910;29;20179;-84
2021/06/17 10:18:18;;;;;;;2.97;2.57;;;31.40;77.60;;;;;;4966559;29;20241;-84
2021/06/17 10:20:44;;;;;;;2.53;2.33;;;31.40;78.10;;;;;;4946162;29;20191;-85
2021/06/17 10:23:15;;;;;;;3.83;2.57;;;31.40;77.90;;;;;;4947347;29;20254;-85
2021/06/17 10:25:43;;;;;;;3.97;2.37;;;31.50;88.20;;;;;;4952290;28;20180;-84
2021/06/17 10:28:09;;;;;;;4.67;2.57;;;31.60;74.30;;;;;;4967826;29;20221;-84
2021/06/17 10:30:44;;;;;;;2.77;2.30;;;31.80;73.90;;;;;;4972152;28;20167;-84
2021/06/17 10:33:31;;;;;;;8.57;2.27;;;31.80;80.50;;;;;;4952354;29;20176;-84
2021/06/17 10:36:22;;;;;;;3.77;2.90;;;31.90;74.20;;;;;;4953441;28;20177;-83
2021/06/17 10:39:12;;;;;;;5.40;3.37;;;31.80;77.50;;;;;;4951047;29;20175;-84
2021/06/17 10:42:04;;;;;;;3.03;2.80;;;31.90;75.00;;;;;;4957285;28;20181;-85
2021/06/17 10:44:42;;;;;;;6.23;2.60;;;31.90;81.70;;;;;;4959042;28;20282;-85
2021/06/17 10:47:08;;;;;;;4.30;2.23;;;32.10;79.10;;;;;;4963225;28;20298;-85
2021/06/17 10:49:42;;;;;;;4.70;2.70;;;32.40;67.70;;;;;;4972274;28;20199;-84
2021/06/17 10:52:28;;;;;;;4.70;2.27;;;32.60;83.50;;;;;;4953233;29;20183;-85
2021/06/17 10:54:58;;;;;;;3.33;2.50;;;32.60;70.40;;;;;;4972846;28;20175;-85
2021/06/17 10:57:51;;;;;;;2.47;2.23;;;32.70;73.90;;;;;;4980214;28;20205;-84
2021/06/17 11:00:24;;;;;;;4.27;2.63;;;32.90;77.50;;;;;;4980914;28;20162;-84
2021/06/17 11:03:05;;;;;;;10.80;2.90;;;33.20;66.60;;;;;;4963921;28;20225;-84
2021/06/17 11:10:49;;;;;;;4.13;2.50;;;33.50;64.30;;;;;;4982099;28;20195;-84
2021/06/17 11:13:35;;;;;;;2.50;2.30;;;33.70;72.40;;;;;;4964609;28;20212;-84
2021/06/17 11:16:06;;;;;;;2.80;2.20;;;34.00;68.90;;;;;;4966458;28;20199;-85
2021/06/17 11:18:41;;;;;;;4.03;2.17;;;34.10;66.10;;;;;;4965181;28;20301;-83
2021/06/17 11:21:27;;;;;;;5.20;2.53;;;34.30;64.30;;;;;;4981481;28;20206;-85
2021/06/17 11:24:19;;;;;;;2.73;2.40;;;34.20;64.00;;;;;;4963635;28;20272;-83
2021/06/17 11:26:47;;;;;;;2.80;2.33;;;34.60;64.90;;;;;;4963750;28;20559;-84
2021/06/17 11:29:36;;;;;;;3.40;2.43;;;34.50;62.90;;;;;;4980333;28;20671;-84
2021/06/17 11:32:03;;;;;;;4.10;2.93;;;34.70;69.10;;;;;;4959732;28;20177;-84
2021/06/17 11:34:29;;;;;;;6.50;2.87;;;34.90;59.90;;;;;;4977677;28;20173;-84
2021/06/17 11:36:57;;;;;;;7.30;2.40;;;34.90;59.20;;;;;;4976745;28;20268;-85
2021/06/17 11:39:27;;;;;;;8.97;2.70;;;35.20;64.20;;;;;;4960828;28;20211;-85
2021/06/17 11:41:54;;;;;;;4.50;2.33;;;35.60;60.70;;;;;;4960112;28;20263;-85
2021/06/17 11:44:24;;;;;;;4.73;2.80;;;35.60;59.70;;;;;;4959526;28;20183;-85
2021/06/17 11:47:11;;;;;;;9.50;2.90;;;35.90;55.60;;;;;;4960085;28;20722;-85
2021/06/17 11:49:44;;;;;;;5.40;2.80;;;35.90;54.70;;;;;;4977524;28;20187;-85
2021/06/17 11:52:19;;;;;;;4.47;2.40;;;36.00;56.50;;;;;;4959473;28;20660;-85
2021/06/17 11:54:45;;;;;;;3.47;2.40;;;36.00;54.90;;;;;;4960335;28;20539;-85
2021/06/17 11:57:12;;;;;;;2.90;2.43;;;36.10;52.80;;;;;;4977712;28;20273;-85
2021/06/17 11:59:40;;;;;;;2.47;2.27;;;36.00;56.60;;;;;;4960308;28;20187;-85
2021/06/17 12:02:15;;;;;;;3.80;2.67;;;36.40;47.90;;;;;;4961178;28;20237;-80
2021/06/17 12:05:07;;;;;;;3.50;2.50;;;36.70;53.50;;;;;;4961406;28;20170;-84
2021/06/17 12:07:44;;;;;;;5.50;2.57;;;37.20;56.90;;;;;;4961870;28;20222;-84
2021/06/17 12:10:19;;;;;;;2.97;2.07;;;37.50;51.80;;;;;;4962012;28;20179;-83
2021/06/17 12:12:54;;;;;;;10.33;2.60;;;37.60;54.20;;;;;;4961193;28;20184;-82
2021/06/17 12:15:29;;;;;;;6.03;2.93;;;37.80;55.40;;;;;;4960250;28;20205;-82
2021/06/17 12:17:59;;;;;;;3.67;2.33;;;38.10;53.20;;;;;;4962259;28;20226;-82
2021/06/17 12:20:35;;;;;;;3.57;2.53;;;38.40;51.80;;;;;;4963746;28;20176;-81
2021/06/17 12:23:00;;;;;;;3.80;2.33;;;38.70;50.30;;;;;;4964198;28;20180;-81
2021/06/17 12:25:30;;;;;;;2.53;2.33;;;38.60;48.50;;;;;;4963212;28;20242;-82
2021/06/17 12:27:59;;;;;;;2.57;2.10;;;38.60;49.80;;;;;;4964600;28;20212;-81
2021/06/17 12:30:40;;;;;;;3.10;2.10;;;38.40;50.90;;;;;;4981376;28;20263;-83
2021/06/17 12:33:28;;;;;;;4.67;2.70;;;38.10;47.40;;;;;;4962884;28;20170;-83
2021/06/17 12:35:57;;;;;;;2.40;2.20;;;38.00;53.70;;;;;;4962566;28;20179;-83
2021/06/17 12:38:26;;;;;;;6.67;2.30;;;38.00;50.60;;;;;;4962072;28;20267;-83
2021/06/17 12:40:53;;;;;;;6.03;3.00;;;37.70;45.70;;;;;;4961975;28;20636;-82
2021/06/17 12:43:24;;;;;;;8.37;2.70;;;37.60;49.70;;;;;;4962188;28;20263;-83
2021/06/17 12:46:08;;;;;;;4.60;2.63;;;37.50;49.00;;;;;;4961735;28;20641;-83
2021/06/17 12:54:07;;;;;;;5.73;2.50;;;37.90;48.80;;;;;;4984090;28;20218;-83
2021/06/17 12:56:34;;;;;;;4.70;2.10;;;38.00;51.40;;;;;;4983978;28;20200;-83
2021/06/17 12:59:00;;;;;;;4.50;2.40;;;38.30;53.30;;;;;;4983740;28;20183;-84
2021/06/17 13:01:44;;;;;;;4.10;2.37;;;38.40;46.80;;;;;;4981818;28;20187;-84
2021/06/17 13:04:14;;;;;;;7.07;2.93;;;38.70;48.50;;;;;;4964339;28;20183;-84
2021/06/17 13:06:40;;;;;;;4.83;2.27;;;38.70;48.30;;;;;;4981757;28;20211;-83
2021/06/17 13:09:26;;;;;;;10.30;2.90;;;38.60;50.90;;;;;;4991592;28;20177;-84
2021/06/17 13:12:07;;;;;;;3.30;2.63;;;38.40;47.20;;;;;;4969256;28;20649;-84
2021/06/17 13:14:53;;;;;;;4.80;2.53;;;38.00;45.80;;;;;;4980069;28;20189;-83
2021/06/17 13:17:20;;;;;;;2.80;2.30;;;37.60;45.70;;;;;;4979792;28;20613;-83
2021/06/17 13:19:52;;;;;;;5.77;2.97;;;37.50;43.90;;;;;;4963127;28;20249;-82
2021/06/17 13:22:20;;;;;;;5.00;2.43;;;37.40;48.50;;;;;;4979895;28;20180;-83